sensor_id;sensor_type;location;lat;lon;timestamp;P1;durP1;ratioP1;P2;durP2;ratioP2
16954;SDS011;8594;52.052;8.354;2023-04-25T00:02:03;25.83;;;6.43;;
16954;SDS011;8594;52.052;8.354;2023-04-25T00:04:31;25.47;;;6.60;;
16954;SDS011;8594;52.052;8.354;2023-04-25T00:06:59;19.93;;;6.27;;
16954;SDS011;8594;52.052;8.354;2023-04-25T00:09:27;25.57;;;6.57;;
16954;SDS011;8594;52.052;8.354;2023-04-25T00:11:54;17.70;;;5.90;;
16954;SDS011;8594;52.052;8.354;2023-04-25T00:14:21;23.03;;;6.63;;
16954;SDS011;8594;52.052;8.354;2023-04-25T00:16:48;14.77;;;7.20;;
16954;SDS011;8594;52.052;8.354;2023-04-25T00:19:18;14.90;;;6.67;;
16954;SDS011;8594;52.052;8.354;2023-04-25T00:21:44;25.40;;;6.87;;
16954;SDS011;8594;52.052;8.354;2023-04-25T00:24:11;16.93;;;6.47;;
16954;SDS011;8594;52.052;8.354;2023-04-25T00:26:38;15.97;;;7.20;;
16954;SDS011;8594;52.052;8.354;2023-04-25T00:29:05;19.00;;;6.10;;
16954;SDS011;8594;52.052;8.354;2023-04-25T00:31:32;22.67;;;6.87;;
16954;SDS011;8594;52.052;8.354;2023-04-25T00:33:59;16.70;;;6.33;;
16954;SDS011;8594;52.052;8.354;2023-04-25T00:36:27;16.43;;;5.47;;
16954;SDS011;8594;52.052;8.354;2023-04-25T00:38:54;29.33;;;6.70;;
16954;SDS011;8594;52.052;8.354;2023-04-25T00:41:22;19.47;;;6.43;;
16954;SDS011;8594;52.052;8.354;2023-04-25T00:43:51;16.23;;;5.67;;
16954;SDS011;8594;52.052;8.354;2023-04-25T00:46:20;17.23;;;7.03;;
16954;SDS011;8594;52.052;8.354;2023-04-25T00:48:47;22.83;;;6.53;;
16954;SDS011;8594;52.052;8.354;2023-04-25T00:51:16;16.27;;;5.77;;
16954;SDS011;8594;52.052;8.354;2023-04-25T00:53:48;18.07;;;6.70;;
16954;SDS011;8594;52.052;8.354;2023-04-25T00:56:16;13.33;;;5.97;;
16954;SDS011;8594;52.052;8.354;2023-04-25T00:58:43;23.40;;;7.07;;
16954;SDS011;8594;52.052;8.354;2023-04-25T01:01:10;17.80;;;6.27;;
16954;SDS011;8594;52.052;8.354;2023-04-25T01:03:39;20.40;;;7.10;;
16954;SDS011;8594;52.052;8.354;2023-04-25T01:06:07;16.37;;;5.87;;
16954;SDS011;8594;52.052;8.354;2023-04-25T01:08:35;16.70;;;5.90;;
16954;SDS011;8594;52.052;8.354;2023-04-25T01:11:05;22.77;;;6.70;;
16954;SDS011;8594;52.052;8.354;2023-04-25T01:13:32;25.47;;;6.47;;
16954;SDS011;8594;52.052;8.354;2023-04-25T01:16:00;16.53;;;6.07;;
16954;SDS011;8594;52.052;8.354;2023-04-25T01:18:28;23.27;;;6.43;;
16954;SDS011;8594;52.052;8.354;2023-04-25T01:20:55;14.33;;;6.73;;
16954;SDS011;8594;52.052;8.354;2023-04-25T01:23:32;20.70;;;6.63;;
16954;SDS011;8594;52.052;8.354;2023-04-25T01:25:59;15.73;;;6.00;;
16954;SDS011;8594;52.052;8.354;2023-04-25T01:28:26;20.47;;;7.57;;
16954;SDS011;8594;52.052;8.354;2023-04-25T01:30:54;20.83;;;6.33;;
16954;SDS011;8594;52.052;8.354;2023-04-25T01:33:22;18.77;;;6.27;;
16954;SDS011;8594;52.052;8.354;2023-04-25T01:35:49;20.60;;;6.20;;
16954;SDS011;8594;52.052;8.354;2023-04-25T01:38:17;13.20;;;6.67;;
16954;SDS011;8594;52.052;8.354;2023-04-25T01:40:44;20.43;;;6.77;;
16954;SDS011;8594;52.052;8.354;2023-04-25T01:43:12;15.43;;;6.83;;
16954;SDS011;8594;52.052;8.354;2023-04-25T01:45:39;20.17;;;6.60;;
16954;SDS011;8594;52.052;8.354;2023-04-25T01:48:06;14.83;;;6.17;;
16954;SDS011;8594;52.052;8.354;2023-04-25T01:50:34;15.47;;;6.50;;
16954;SDS011;8594;52.052;8.354;2023-04-25T01:53:01;15.07;;;6.67;;
16954;SDS011;8594;52.052;8.354;2023-04-25T01:55:29;17.33;;;6.03;;
16954;SDS011;8594;52.052;8.354;2023-04-25T01:57:56;18.27;;;5.93;;
16954;SDS011;8594;52.052;8.354;2023-04-25T02:00:24;14.50;;;5.93;;
16954;SDS011;8594;52.052;8.354;2023-04-25T02:02:50;14.97;;;6.40;;
16954;SDS011;8594;52.052;8.354;2023-04-25T02:05:18;13.20;;;5.03;;
16954;SDS011;8594;52.052;8.354;2023-04-25T02:07:45;15.50;;;5.57;;
16954;SDS011;8594;52.052;8.354;2023-04-25T02:10:13;13.17;;;5.30;;
16954;SDS011;8594;52.052;8.354;2023-04-25T02:12:42;11.23;;;5.70;;
16954;SDS011;8594;52.052;8.354;2023-04-25T02:15:09;14.47;;;6.00;;
16954;SDS011;8594;52.052;8.354;2023-04-25T02:17:36;16.53;;;5.57;;
16954;SDS011;8594;52.052;8.354;2023-04-25T02:20:04;15.50;;;5.10;;
16954;SDS011;8594;52.052;8.354;2023-04-25T02:22:32;14.93;;;5.07;;
16954;SDS011;8594;52.052;8.354;2023-04-25T02:25:00;11.70;;;5.00;;
16954;SDS011;8594;52.052;8.354;2023-04-25T02:27:29;14.17;;;4.73;;
16954;SDS011;8594;52.052;8.354;2023-04-25T02:29:57;25.67;;;4.77;;
16954;SDS011;8594;52.052;8.354;2023-04-25T02:32:24;17.07;;;4.63;;
16954;SDS011;8594;52.052;8.354;2023-04-25T02:34:51;21.20;;;4.67;;
16954;SDS011;8594;52.052;8.354;2023-04-25T02:37:18;23.43;;;4.83;;
16954;SDS011;8594;52.052;8.354;2023-04-25T02:39:45;21.60;;;5.10;;
16954;SDS011;8594;52.052;8.354;2023-04-25T02:42:12;23.33;;;5.03;;
16954;SDS011;8594;52.052;8.354;2023-04-25T02:44:39;20.43;;;5.53;;
16954;SDS011;8594;52.052;8.354;2023-04-25T02:47:07;15.67;;;5.13;;
16954;SDS011;8594;52.052;8.354;2023-04-25T02:49:34;22.10;;;4.57;;
16954;SDS011;8594;52.052;8.354;2023-04-25T02:52:00;24.93;;;5.30;;
16954;SDS011;8594;52.052;8.354;2023-04-25T02:54:27;25.27;;;4.53;;
16954;SDS011;8594;52.052;8.354;2023-04-25T02:56:54;20.93;;;5.10;;
16954;SDS011;8594;52.052;8.354;2023-04-25T02:59:20;22.23;;;4.90;;
16954;SDS011;8594;52.052;8.354;2023-04-25T03:01:47;20.63;;;4.90;;
16954;SDS011;8594;52.052;8.354;2023-04-25T03:04:15;19.00;;;5.00;;
16954;SDS011;8594;52.052;8.354;2023-04-25T03:06:43;16.20;;;4.17;;
16954;SDS011;8594;52.052;8.354;2023-04-25T03:09:10;17.00;;;4.97;;
16954;SDS011;8594;52.052;8.354;2023-04-25T03:11:38;23.40;;;5.03;;
16954;SDS011;8594;52.052;8.354;2023-04-25T03:14:05;22.13;;;5.07;;
16954;SDS011;8594;52.052;8.354;2023-04-25T03:16:31;19.97;;;5.03;;
16954;SDS011;8594;52.052;8.354;2023-04-25T03:18:58;23.60;;;5.07;;
16954;SDS011;8594;52.052;8.354;2023-04-25T03:21:26;12.17;;;4.70;;
16954;SDS011;8594;52.052;8.354;2023-04-25T03:23:53;26.43;;;5.63;;
16954;SDS011;8594;52.052;8.354;2023-04-25T03:26:20;30.43;;;5.60;;
16954;SDS011;8594;52.052;8.354;2023-04-25T03:28:47;27.90;;;5.43;;
16954;SDS011;8594;52.052;8.354;2023-04-25T03:31:13;16.17;;;5.03;;
16954;SDS011;8594;52.052;8.354;2023-04-25T03:33:40;23.47;;;5.33;;
16954;SDS011;8594;52.052;8.354;2023-04-25T03:36:07;26.03;;;6.10;;
16954;SDS011;8594;52.052;8.354;2023-04-25T03:38:36;23.77;;;5.10;;
16954;SDS011;8594;52.052;8.354;2023-04-25T03:41:03;21.60;;;5.10;;
16954;SDS011;8594;52.052;8.354;2023-04-25T03:43:30;23.13;;;4.83;;
16954;SDS011;8594;52.052;8.354;2023-04-25T03:45:57;17.63;;;5.10;;
16954;SDS011;8594;52.052;8.354;2023-04-25T03:48:23;20.47;;;5.73;;
16954;SDS011;8594;52.052;8.354;2023-04-25T03:50:51;21.73;;;5.73;;
16954;SDS011;8594;52.052;8.354;2023-04-25T03:53:18;24.87;;;5.93;;
16954;SDS011;8594;52.052;8.354;2023-04-25T03:55:46;19.23;;;4.83;;
16954;SDS011;8594;52.052;8.354;2023-04-25T03:58:13;16.47;;;4.77;;
16954;SDS011;8594;52.052;8.354;2023-04-25T04:00:40;28.27;;;5.70;;
16954;SDS011;8594;52.052;8.354;2023-04-25T04:03:07;25.20;;;5.10;;
16954;SDS011;8594;52.052;8.354;2023-04-25T04:05:34;25.33;;;5.23;;
16954;SDS011;8594;52.052;8.354;2023-04-25T04:08:02;20.43;;;5.17;;
16954;SDS011;8594;52.052;8.354;2023-04-25T04:10:29;22.17;;;4.90;;
16954;SDS011;8594;52.052;8.354;2023-04-25T04:12:57;23.87;;;5.27;;
16954;SDS011;8594;52.052;8.354;2023-04-25T04:15:23;20.20;;;5.47;;
16954;SDS011;8594;52.052;8.354;2023-04-25T04:17:50;18.47;;;4.70;;
16954;SDS011;8594;52.052;8.354;2023-04-25T04:20:17;23.93;;;6.53;;
16954;SDS011;8594;52.052;8.354;2023-04-25T04:22:44;27.27;;;5.97;;
16954;SDS011;8594;52.052;8.354;2023-04-25T04:25:10;19.60;;;5.47;;
16954;SDS011;8594;52.052;8.354;2023-04-25T04:27:37;29.23;;;5.83;;
16954;SDS011;8594;52.052;8.354;2023-04-25T04:30:07;27.63;;;6.00;;
16954;SDS011;8594;52.052;8.354;2023-04-25T04:32:34;21.70;;;5.30;;
16954;SDS011;8594;52.052;8.354;2023-04-25T04:35:02;39.57;;;6.20;;
16954;SDS011;8594;52.052;8.354;2023-04-25T04:37:31;20.73;;;6.17;;
16954;SDS011;8594;52.052;8.354;2023-04-25T04:39:58;25.20;;;5.90;;
16954;SDS011;8594;52.052;8.354;2023-04-25T04:42:26;21.43;;;6.13;;
16954;SDS011;8594;52.052;8.354;2023-04-25T04:44:54;28.57;;;6.43;;
16954;SDS011;8594;52.052;8.354;2023-04-25T04:47:22;23.13;;;6.50;;
16954;SDS011;8594;52.052;8.354;2023-04-25T04:49:49;24.87;;;6.47;;
16954;SDS011;8594;52.052;8.354;2023-04-25T04:52:16;26.50;;;7.03;;
16954;SDS011;8594;52.052;8.354;2023-04-25T04:54:43;22.40;;;7.20;;
16954;SDS011;8594;52.052;8.354;2023-04-25T04:57:09;21.10;;;6.33;;
16954;SDS011;8594;52.052;8.354;2023-04-25T04:59:36;28.17;;;6.40;;
16954;SDS011;8594;52.052;8.354;2023-04-25T05:02:03;22.67;;;6.73;;
16954;SDS011;8594;52.052;8.354;2023-04-25T05:04:31;32.43;;;6.33;;
16954;SDS011;8594;52.052;8.354;2023-04-25T05:06:58;39.77;;;6.90;;
16954;SDS011;8594;52.052;8.354;2023-04-25T05:09:24;22.23;;;5.60;;
16954;SDS011;8594;52.052;8.354;2023-04-25T05:11:52;25.47;;;6.60;;
16954;SDS011;8594;52.052;8.354;2023-04-25T05:14:19;24.37;;;6.30;;
16954;SDS011;8594;52.052;8.354;2023-04-25T05:16:46;27.20;;;6.20;;
16954;SDS011;8594;52.052;8.354;2023-04-25T05:19:13;22.87;;;5.77;;
16954;SDS011;8594;52.052;8.354;2023-04-25T05:21:41;23.27;;;7.30;;
16954;SDS011;8594;52.052;8.354;2023-04-25T05:24:08;29.97;;;6.50;;
16954;SDS011;8594;52.052;8.354;2023-04-25T05:26:35;38.00;;;7.50;;
16954;SDS011;8594;52.052;8.354;2023-04-25T05:29:01;25.80;;;6.23;;
16954;SDS011;8594;52.052;8.354;2023-04-25T05:31:28;27.87;;;6.57;;
16954;SDS011;8594;52.052;8.354;2023-04-25T05:33:55;23.83;;;6.57;;
16954;SDS011;8594;52.052;8.354;2023-04-25T05:36:22;21.33;;;6.07;;
16954;SDS011;8594;52.052;8.354;2023-04-25T05:38:50;27.23;;;6.80;;
16954;SDS011;8594;52.052;8.354;2023-04-25T05:41:17;23.20;;;7.50;;
16954;SDS011;8594;52.052;8.354;2023-04-25T05:43:43;21.37;;;6.33;;
16954;SDS011;8594;52.052;8.354;2023-04-25T05:46:13;30.33;;;6.83;;
16954;SDS011;8594;52.052;8.354;2023-04-25T05:48:40;27.37;;;7.27;;
16954;SDS011;8594;52.052;8.354;2023-04-25T05:51:07;31.30;;;6.50;;
16954;SDS011;8594;52.052;8.354;2023-04-25T05:53:34;20.33;;;5.93;;
16954;SDS011;8594;52.052;8.354;2023-04-25T05:56:02;24.57;;;5.80;;
16954;SDS011;8594;52.052;8.354;2023-04-25T05:58:29;29.20;;;6.60;;
16954;SDS011;8594;52.052;8.354;2023-04-25T06:00:56;23.43;;;6.07;;
16954;SDS011;8594;52.052;8.354;2023-04-25T06:03:23;28.87;;;6.97;;
16954;SDS011;8594;52.052;8.354;2023-04-25T06:05:49;25.27;;;5.67;;
16954;SDS011;8594;52.052;8.354;2023-04-25T06:08:16;25.73;;;6.20;;
16954;SDS011;8594;52.052;8.354;2023-04-25T06:10:44;24.10;;;5.53;;
16954;SDS011;8594;52.052;8.354;2023-04-25T06:13:12;28.60;;;5.87;;
16954;SDS011;8594;52.052;8.354;2023-04-25T06:15:38;31.50;;;5.90;;
16954;SDS011;8594;52.052;8.354;2023-04-25T06:18:05;23.07;;;6.07;;
16954;SDS011;8594;52.052;8.354;2023-04-25T06:20:33;29.30;;;5.67;;
16954;SDS011;8594;52.052;8.354;2023-04-25T06:22:59;22.97;;;5.27;;
16954;SDS011;8594;52.052;8.354;2023-04-25T06:25:26;21.97;;;5.20;;
16954;SDS011;8594;52.052;8.354;2023-04-25T06:27:53;24.57;;;5.77;;
16954;SDS011;8594;52.052;8.354;2023-04-25T06:30:21;25.37;;;6.07;;
16954;SDS011;8594;52.052;8.354;2023-04-25T06:32:50;28.10;;;5.77;;
16954;SDS011;8594;52.052;8.354;2023-04-25T06:35:17;18.03;;;4.30;;
16954;SDS011;8594;52.052;8.354;2023-04-25T06:37:44;29.67;;;5.93;;
16954;SDS011;8594;52.052;8.354;2023-04-25T06:40:11;30.93;;;5.63;;
16954;SDS011;8594;52.052;8.354;2023-04-25T06:42:38;21.13;;;4.97;;
16954;SDS011;8594;52.052;8.354;2023-04-25T06:45:05;21.30;;;5.70;;
16954;SDS011;8594;52.052;8.354;2023-04-25T06:47:34;20.93;;;5.63;;
16954;SDS011;8594;52.052;8.354;2023-04-25T06:50:01;21.37;;;4.20;;
16954;SDS011;8594;52.052;8.354;2023-04-25T06:52:29;28.67;;;5.50;;
16954;SDS011;8594;52.052;8.354;2023-04-25T06:54:56;17.07;;;4.73;;
16954;SDS011;8594;52.052;8.354;2023-04-25T06:57:23;19.27;;;4.80;;
16954;SDS011;8594;52.052;8.354;2023-04-25T06:59:50;19.03;;;4.53;;
16954;SDS011;8594;52.052;8.354;2023-04-25T07:02:17;18.43;;;4.30;;
16954;SDS011;8594;52.052;8.354;2023-04-25T07:04:45;15.63;;;4.50;;
16954;SDS011;8594;52.052;8.354;2023-04-25T07:07:12;18.83;;;4.77;;
16954;SDS011;8594;52.052;8.354;2023-04-25T07:09:38;19.03;;;5.07;;
16954;SDS011;8594;52.052;8.354;2023-04-25T07:12:05;20.23;;;4.00;;
16954;SDS011;8594;52.052;8.354;2023-04-25T07:14:32;16.37;;;3.73;;
16954;SDS011;8594;52.052;8.354;2023-04-25T07:16:59;15.63;;;4.30;;
16954;SDS011;8594;52.052;8.354;2023-04-25T07:19:26;17.77;;;3.77;;
16954;SDS011;8594;52.052;8.354;2023-04-25T07:21:56;12.77;;;4.43;;
16954;SDS011;8594;52.052;8.354;2023-04-25T07:24:22;20.47;;;3.93;;
16954;SDS011;8594;52.052;8.354;2023-04-25T07:26:49;14.47;;;3.83;;
16954;SDS011;8594;52.052;8.354;2023-04-25T07:29:16;20.67;;;4.63;;
16954;SDS011;8594;52.052;8.354;2023-04-25T07:31:43;27.33;;;4.67;;
16954;SDS011;8594;52.052;8.354;2023-04-25T07:34:09;22.50;;;4.43;;
16954;SDS011;8594;52.052;8.354;2023-04-25T07:36:36;19.07;;;4.37;;
16954;SDS011;8594;52.052;8.354;2023-04-25T07:39:04;24.90;;;4.20;;
16954;SDS011;8594;52.052;8.354;2023-04-25T07:41:31;22.57;;;4.10;;
16954;SDS011;8594;52.052;8.354;2023-04-25T07:43:58;22.97;;;4.00;;
16954;SDS011;8594;52.052;8.354;2023-04-25T07:46:25;16.50;;;3.70;;
16954;SDS011;8594;52.052;8.354;2023-04-25T07:48:52;17.10;;;3.80;;
16954;SDS011;8594;52.052;8.354;2023-04-25T07:51:18;13.27;;;3.57;;
16954;SDS011;8594;52.052;8.354;2023-04-25T07:53:47;19.37;;;4.37;;
16954;SDS011;8594;52.052;8.354;2023-04-25T07:56:15;14.97;;;3.53;;
16954;SDS011;8594;52.052;8.354;2023-04-25T07:58:41;20.47;;;3.30;;
16954;SDS011;8594;52.052;8.354;2023-04-25T08:01:08;15.33;;;4.03;;
16954;SDS011;8594;52.052;8.354;2023-04-25T08:03:35;15.87;;;3.50;;
16954;SDS011;8594;52.052;8.354;2023-04-25T08:06:02;15.17;;;3.10;;
16954;SDS011;8594;52.052;8.354;2023-04-25T08:08:30;16.33;;;2.93;;
16954;SDS011;8594;52.052;8.354;2023-04-25T08:10:56;12.30;;;3.47;;
16954;SDS011;8594;52.052;8.354;2023-04-25T08:13:24;14.70;;;2.87;;
16954;SDS011;8594;52.052;8.354;2023-04-25T08:15:51;20.00;;;3.73;;
16954;SDS011;8594;52.052;8.354;2023-04-25T08:18:18;15.13;;;3.07;;
16954;SDS011;8594;52.052;8.354;2023-04-25T08:20:45;16.70;;;3.00;;
16954;SDS011;8594;52.052;8.354;2023-04-25T08:23:12;10.77;;;2.77;;
16954;SDS011;8594;52.052;8.354;2023-04-25T08:25:39;11.53;;;3.70;;
16954;SDS011;8594;52.052;8.354;2023-04-25T08:28:06;12.33;;;3.00;;
16954;SDS011;8594;52.052;8.354;2023-04-25T08:30:34;14.90;;;3.30;;
16954;SDS011;8594;52.052;8.354;2023-04-25T08:33:01;6.90;;;2.60;;
16954;SDS011;8594;52.052;8.354;2023-04-25T08:35:27;14.97;;;3.17;;
16954;SDS011;8594;52.052;8.354;2023-04-25T08:37:54;9.67;;;2.90;;
16954;SDS011;8594;52.052;8.354;2023-04-25T08:40:22;11.93;;;2.63;;
16954;SDS011;8594;52.052;8.354;2023-04-25T08:42:51;10.90;;;3.13;;
16954;SDS011;8594;52.052;8.354;2023-04-25T08:45:20;12.63;;;3.00;;
16954;SDS011;8594;52.052;8.354;2023-04-25T08:47:48;11.57;;;2.87;;
16954;SDS011;8594;52.052;8.354;2023-04-25T08:50:18;9.73;;;3.10;;
16954;SDS011;8594;52.052;8.354;2023-04-25T08:52:47;10.33;;;2.90;;
16954;SDS011;8594;52.052;8.354;2023-04-25T08:55:18;15.30;;;3.80;;
16954;SDS011;8594;52.052;8.354;2023-04-25T08:57:46;10.50;;;2.87;;
16954;SDS011;8594;52.052;8.354;2023-04-25T09:00:14;12.27;;;3.00;;
16954;SDS011;8594;52.052;8.354;2023-04-25T09:02:41;14.70;;;3.10;;
16954;SDS011;8594;52.052;8.354;2023-04-25T09:05:10;11.63;;;2.40;;
16954;SDS011;8594;52.052;8.354;2023-04-25T09:07:39;8.70;;;2.57;;
16954;SDS011;8594;52.052;8.354;2023-04-25T09:10:06;10.83;;;2.53;;
16954;SDS011;8594;52.052;8.354;2023-04-25T09:12:34;9.30;;;2.10;;
16954;SDS011;8594;52.052;8.354;2023-04-25T09:15:02;12.77;;;2.67;;
16954;SDS011;8594;52.052;8.354;2023-04-25T09:17:32;9.53;;;2.83;;
16954;SDS011;8594;52.052;8.354;2023-04-25T09:20:06;15.73;;;2.57;;
16954;SDS011;8594;52.052;8.354;2023-04-25T09:22:37;12.10;;;2.27;;
16954;SDS011;8594;52.052;8.354;2023-04-25T09:25:07;8.97;;;2.60;;
16954;SDS011;8594;52.052;8.354;2023-04-25T09:27:36;9.30;;;2.53;;
16954;SDS011;8594;52.052;8.354;2023-04-25T09:30:16;8.30;;;2.57;;
16954;SDS011;8594;52.052;8.354;2023-04-25T09:32:43;7.90;;;2.60;;
16954;SDS011;8594;52.052;8.354;2023-04-25T09:35:10;12.53;;;3.17;;
16954;SDS011;8594;52.052;8.354;2023-04-25T09:37:51;9.03;;;2.30;;
16954;SDS011;8594;52.052;8.354;2023-04-25T09:40:17;9.27;;;2.07;;
16954;SDS011;8594;52.052;8.354;2023-04-25T09:42:44;11.17;;;2.50;;
16954;SDS011;8594;52.052;8.354;2023-04-25T09:45:12;9.57;;;2.27;;
16954;SDS011;8594;52.052;8.354;2023-04-25T09:47:39;12.97;;;2.90;;
16954;SDS011;8594;52.052;8.354;2023-04-25T09:50:13;10.30;;;2.43;;
16954;SDS011;8594;52.052;8.354;2023-04-25T09:52:41;10.50;;;2.80;;
16954;SDS011;8594;52.052;8.354;2023-04-25T09:55:09;11.13;;;2.20;;
16954;SDS011;8594;52.052;8.354;2023-04-25T09:57:36;8.83;;;2.33;;
16954;SDS011;8594;52.052;8.354;2023-04-25T10:00:05;13.83;;;2.83;;
16954;SDS011;8594;52.052;8.354;2023-04-25T10:02:37;6.30;;;2.20;;
16954;SDS011;8594;52.052;8.354;2023-04-25T10:05:08;8.87;;;2.57;;
16954;SDS011;8594;52.052;8.354;2023-04-25T10:07:37;11.00;;;2.83;;
16954;SDS011;8594;52.052;8.354;2023-04-25T10:10:05;14.03;;;2.50;;
16954;SDS011;8594;52.052;8.354;2023-04-25T10:12:36;9.13;;;2.40;;
16954;SDS011;8594;52.052;8.354;2023-04-25T10:15:05;13.63;;;2.63;;
16954;SDS011;8594;52.052;8.354;2023-04-25T10:17:34;7.87;;;2.83;;
16954;SDS011;8594;52.052;8.354;2023-04-25T10:20:02;9.83;;;2.60;;
16954;SDS011;8594;52.052;8.354;2023-04-25T10:22:32;13.67;;;2.73;;
16954;SDS011;8594;52.052;8.354;2023-04-25T10:25:03;13.93;;;2.57;;
16954;SDS011;8594;52.052;8.354;2023-04-25T10:27:34;8.17;;;2.67;;
16954;SDS011;8594;52.052;8.354;2023-04-25T10:30:02;10.33;;;3.07;;
16954;SDS011;8594;52.052;8.354;2023-04-25T10:32:35;11.30;;;2.80;;
16954;SDS011;8594;52.052;8.354;2023-04-25T10:35:12;10.73;;;2.83;;
16954;SDS011;8594;52.052;8.354;2023-04-25T10:37:57;6.63;;;2.30;;
16954;SDS011;8594;52.052;8.354;2023-04-25T10:40:30;10.27;;;2.73;;
16954;SDS011;8594;52.052;8.354;2023-04-25T10:43:32;11.53;;;2.53;;
16954;SDS011;8594;52.052;8.354;2023-04-25T10:46:12;7.90;;;2.43;;
16954;SDS011;8594;52.052;8.354;2023-04-25T10:48:48;8.07;;;2.50;;
16954;SDS011;8594;52.052;8.354;2023-04-25T10:51:17;11.27;;;3.43;;
16954;SDS011;8594;52.052;8.354;2023-04-25T10:53:46;9.23;;;2.10;;
16954;SDS011;8594;52.052;8.354;2023-04-25T10:56:22;17.90;;;2.43;;
16954;SDS011;8594;52.052;8.354;2023-04-25T10:58:53;6.97;;;2.40;;
16954;SDS011;8594;52.052;8.354;2023-04-25T11:01:35;8.27;;;2.40;;
16954;SDS011;8594;52.052;8.354;2023-04-25T11:04:06;9.43;;;2.60;;
16954;SDS011;8594;52.052;8.354;2023-04-25T11:06:51;11.73;;;2.90;;
16954;SDS011;8594;52.052;8.354;2023-04-25T11:09:31;6.10;;;2.20;;
16954;SDS011;8594;52.052;8.354;2023-04-25T11:11:59;6.03;;;1.80;;
16954;SDS011;8594;52.052;8.354;2023-04-25T11:14:28;7.33;;;2.30;;
16954;SDS011;8594;52.052;8.354;2023-04-25T11:16:55;7.67;;;2.00;;
16954;SDS011;8594;52.052;8.354;2023-04-25T11:19:23;10.70;;;2.17;;
16954;SDS011;8594;52.052;8.354;2023-04-25T11:21:54;5.73;;;1.77;;
16954;SDS011;8594;52.052;8.354;2023-04-25T11:24:25;9.43;;;2.53;;
16954;SDS011;8594;52.052;8.354;2023-04-25T11:26:53;9.43;;;2.60;;
16954;SDS011;8594;52.052;8.354;2023-04-25T11:29:21;6.20;;;2.00;;
16954;SDS011;8594;52.052;8.354;2023-04-25T11:31:50;8.30;;;2.37;;
16954;SDS011;8594;52.052;8.354;2023-04-25T11:34:17;9.17;;;2.10;;
16954;SDS011;8594;52.052;8.354;2023-04-25T11:36:44;9.60;;;2.17;;
16954;SDS011;8594;52.052;8.354;2023-04-25T11:39:12;10.67;;;2.40;;
16954;SDS011;8594;52.052;8.354;2023-04-25T11:41:40;7.57;;;2.40;;
16954;SDS011;8594;52.052;8.354;2023-04-25T11:44:08;7.37;;;2.10;;
16954;SDS011;8594;52.052;8.354;2023-04-25T11:46:34;8.00;;;2.50;;
16954;SDS011;8594;52.052;8.354;2023-04-25T11:49:02;7.37;;;2.33;;
16954;SDS011;8594;52.052;8.354;2023-04-25T11:51:30;11.43;;;3.90;;
16954;SDS011;8594;52.052;8.354;2023-04-25T11:54:04;19.73;;;3.07;;
16954;SDS011;8594;52.052;8.354;2023-04-25T11:56:31;9.77;;;2.33;;
16954;SDS011;8594;52.052;8.354;2023-04-25T11:58:59;6.87;;;2.33;;
16954;SDS011;8594;52.052;8.354;2023-04-25T12:01:28;12.23;;;3.10;;
16954;SDS011;8594;52.052;8.354;2023-04-25T12:03:57;12.00;;;2.30;;
16954;SDS011;8594;52.052;8.354;2023-04-25T12:06:28;11.60;;;2.80;;
16954;SDS011;8594;52.052;8.354;2023-04-25T12:08:58;7.77;;;2.53;;
16954;SDS011;8594;52.052;8.354;2023-04-25T12:11:28;7.23;;;2.03;;
16954;SDS011;8594;52.052;8.354;2023-04-25T12:14:01;8.23;;;2.07;;
16954;SDS011;8594;52.052;8.354;2023-04-25T12:16:29;5.83;;;2.60;;
16954;SDS011;8594;52.052;8.354;2023-04-25T12:19:05;8.47;;;2.10;;
16954;SDS011;8594;52.052;8.354;2023-04-25T12:21:33;7.47;;;2.27;;
16954;SDS011;8594;52.052;8.354;2023-04-25T12:24:09;9.07;;;2.33;;
16954;SDS011;8594;52.052;8.354;2023-04-25T12:26:50;7.37;;;2.20;;
16954;SDS011;8594;52.052;8.354;2023-04-25T12:29:19;15.17;;;2.63;;
16954;SDS011;8594;52.052;8.354;2023-04-25T12:31:49;9.67;;;2.03;;
16954;SDS011;8594;52.052;8.354;2023-04-25T12:34:17;10.47;;;2.97;;
16954;SDS011;8594;52.052;8.354;2023-04-25T12:36:46;9.77;;;2.60;;
16954;SDS011;8594;52.052;8.354;2023-04-25T12:39:14;9.57;;;2.70;;
16954;SDS011;8594;52.052;8.354;2023-04-25T12:41:41;12.23;;;2.50;;
16954;SDS011;8594;52.052;8.354;2023-04-25T12:44:10;11.07;;;1.93;;
16954;SDS011;8594;52.052;8.354;2023-04-25T12:46:37;7.27;;;1.97;;
16954;SDS011;8594;52.052;8.354;2023-04-25T12:49:05;7.07;;;2.03;;
16954;SDS011;8594;52.052;8.354;2023-04-25T12:51:33;9.63;;;1.90;;
16954;SDS011;8594;52.052;8.354;2023-04-25T12:54:02;7.33;;;1.90;;
16954;SDS011;8594;52.052;8.354;2023-04-25T12:56:31;12.23;;;2.10;;
16954;SDS011;8594;52.052;8.354;2023-04-25T12:58:58;6.73;;;1.63;;
16954;SDS011;8594;52.052;8.354;2023-04-25T13:01:26;6.10;;;1.73;;
16954;SDS011;8594;52.052;8.354;2023-04-25T13:03:52;5.30;;;1.87;;
16954;SDS011;8594;52.052;8.354;2023-04-25T13:06:20;8.07;;;1.87;;
16954;SDS011;8594;52.052;8.354;2023-04-25T13:08:47;8.37;;;2.00;;
16954;SDS011;8594;52.052;8.354;2023-04-25T13:11:16;5.93;;;2.40;;
16954;SDS011;8594;52.052;8.354;2023-04-25T13:13:43;7.07;;;1.80;;
16954;SDS011;8594;52.052;8.354;2023-04-25T13:16:10;7.13;;;5.17;;
16954;SDS011;8594;52.052;8.354;2023-04-25T13:18:38;8.13;;;1.93;;
16954;SDS011;8594;52.052;8.354;2023-04-25T13:21:05;3.23;;;1.90;;
16954;SDS011;8594;52.052;8.354;2023-04-25T13:23:32;10.63;;;2.40;;
16954;SDS011;8594;52.052;8.354;2023-04-25T13:25:59;5.33;;;2.20;;
16954;SDS011;8594;52.052;8.354;2023-04-25T13:28:28;4.53;;;1.90;;
16954;SDS011;8594;52.052;8.354;2023-04-25T13:30:55;10.07;;;2.60;;
16954;SDS011;8594;52.052;8.354;2023-04-25T13:33:21;4.63;;;1.70;;
16954;SDS011;8594;52.052;8.354;2023-04-25T13:35:48;8.03;;;2.93;;
16954;SDS011;8594;52.052;8.354;2023-04-25T13:38:18;5.50;;;1.97;;
16954;SDS011;8594;52.052;8.354;2023-04-25T13:40:47;3.17;;;1.70;;
16954;SDS011;8594;52.052;8.354;2023-04-25T13:43:15;5.27;;;1.60;;
16954;SDS011;8594;52.052;8.354;2023-04-25T13:45:43;5.80;;;1.63;;
16954;SDS011;8594;52.052;8.354;2023-04-25T13:48:10;4.27;;;1.53;;
16954;SDS011;8594;52.052;8.354;2023-04-25T13:50:37;7.40;;;1.93;;
16954;SDS011;8594;52.052;8.354;2023-04-25T13:53:03;5.40;;;1.80;;
16954;SDS011;8594;52.052;8.354;2023-04-25T13:55:30;8.10;;;1.80;;
16954;SDS011;8594;52.052;8.354;2023-04-25T13:57:57;11.60;;;3.00;;
16954;SDS011;8594;52.052;8.354;2023-04-25T14:00:24;6.17;;;2.23;;
16954;SDS011;8594;52.052;8.354;2023-04-25T14:02:52;8.60;;;1.93;;
16954;SDS011;8594;52.052;8.354;2023-04-25T14:05:19;7.07;;;2.37;;
16954;SDS011;8594;52.052;8.354;2023-04-25T14:07:47;8.77;;;2.07;;
16954;SDS011;8594;52.052;8.354;2023-04-25T14:10:15;8.27;;;1.70;;
16954;SDS011;8594;52.052;8.354;2023-04-25T14:12:42;9.40;;;1.73;;
16954;SDS011;8594;52.052;8.354;2023-04-25T14:15:09;5.00;;;1.87;;
16954;SDS011;8594;52.052;8.354;2023-04-25T14:17:36;3.77;;;1.47;;
16954;SDS011;8594;52.052;8.354;2023-04-25T14:20:06;10.77;;;1.90;;
16954;SDS011;8594;52.052;8.354;2023-04-25T14:22:36;3.80;;;1.63;;
16954;SDS011;8594;52.052;8.354;2023-04-25T14:25:06;7.20;;;1.70;;
16954;SDS011;8594;52.052;8.354;2023-04-25T14:27:34;7.43;;;1.67;;
16954;SDS011;8594;52.052;8.354;2023-04-25T14:30:01;7.83;;;1.83;;
16954;SDS011;8594;52.052;8.354;2023-04-25T14:32:28;5.47;;;1.80;;
16954;SDS011;8594;52.052;8.354;2023-04-25T14:34:57;6.87;;;1.83;;
16954;SDS011;8594;52.052;8.354;2023-04-25T14:37:25;11.43;;;1.60;;
16954;SDS011;8594;52.052;8.354;2023-04-25T14:39:52;5.33;;;1.80;;
16954;SDS011;8594;52.052;8.354;2023-04-25T14:42:19;9.50;;;2.00;;
16954;SDS011;8594;52.052;8.354;2023-04-25T14:44:45;4.50;;;1.50;;
16954;SDS011;8594;52.052;8.354;2023-04-25T14:47:12;3.50;;;1.90;;
16954;SDS011;8594;52.052;8.354;2023-04-25T14:49:40;8.00;;;2.33;;
16954;SDS011;8594;52.052;8.354;2023-04-25T14:52:07;6.07;;;2.00;;
16954;SDS011;8594;52.052;8.354;2023-04-25T14:54:35;7.20;;;2.13;;
16954;SDS011;8594;52.052;8.354;2023-04-25T14:57:02;8.43;;;1.67;;